Paramount Hydra — 2CWC3 — position and weather

sailwx.info

Track history (hours):
 
Tides and Currents Weather Stations Pressure Air Temp Water Temp Dewpoint Dewpoint Depression Visibility Wind Speed Wind Dir Waves Ship Positions

Paramount Hydra

Last reported at 2017-Sep-25 11:30 UTC. Time now 2017-Sep-25 11:36 UTC.
Position N 31°56' W 119°34'.

Length 250 m; draft 8.6 m.

Type: Ship. MMSI: 235076283.

Date/timePositionNaut miles runAvg speedWind from/ knotsBaromVisibWave heightAir tempDewpointWater temp
2017-Sep-25 11:30N 31°56' W 119°34'1 1.6
2017-Sep-25 11:00N 31°56' W 119°34'1 1.7
2017-Sep-25 10:31N 31°57' W 119°34'1 1.7
2017-Sep-25 10:00N 31°58' W 119°34'1 1.8
2017-Sep-25 09:30N 31°59' W 119°34'1 1.8
2017-Sep-25 09:01N 31°60' W 119°33'1 1.9
2017-Sep-25 08:30N 32°01' W 119°33'1 2.0
2017-Sep-25 08:00N 32°02' W 119°33'1 2.1
2017-Sep-25 07:31N 32°03' W 119°33'1 2.1
2017-Sep-25 07:00N 32°04' W 119°32'4 7.4
2017-Sep-25 06:30N 32°07' W 119°35'612.2
2017-Sep-25 06:00N 32°12' W 119°39'612.2
2017-Sep-25 05:30N 32°17' W 119°42'612.4
2017-Sep-25 05:00N 32°22' W 119°46'612.2
2017-Sep-25 04:30N 32°28' W 119°50'3112.2
2017-Sep-25 01:57N 32°54' W 120°10'612.6
2017-Sep-25 01:30N 32°59' W 120°13'612.6
2017-Sep-25 01:00N 33°04' W 120°17'612.3
2017-Sep-25 00:30N 33°09' W 120°21'612.2
2017-Sep-25 00:00N 33°15' W 120°25'612.7
2017-Sep-24 23:30N 33°20' W 120°29'612.7
2017-Sep-24 23:00N 33°26' W 120°33'612.1
2017-Sep-24 22:30N 33°31' W 120°36'612.1
2017-Sep-24 22:00N 33°36' W 120°40'612.1
2017-Sep-24 21:30N 33°42' W 120°43'611.7
2017-Sep-24 21:00N 33°47' W 120°46'611.7
2017-Sep-24 20:30N 33°52' W 120°49'611.9
2017-Sep-24 19:59N 33°58' W 120°53'612.1
2017-Sep-24 19:28N 34°03' W 120°56'612.2
2017-Sep-24 19:00N 34°08' W 120°59'612.1
2017-Sep-24 18:28N 34°14' W 121°03'511.8
2017-Sep-24 18:00N 34°19' W 121°07'611.6
2017-Sep-24 17:30N 34°24' W 121°10'611.7
2017-Sep-24 17:00N 34°29' W 121°12'611.5
2017-Sep-24 16:30N 34°34' W 121°15'611.7
2017-Sep-24 16:00N 34°39' W 121°19'611.7
2017-Sep-24 15:30N 34°45' W 121°22'711.8
2017-Sep-24 14:57N 34°51' W 121°25'511.9
2017-Sep-24 14:30N 34°55' W 121°28'611.9
2017-Sep-24 14:00N 35°01' W 121°31'611.9
2017-Sep-24 13:30N 35°06' W 121°35'611.8
2017-Sep-24 13:00N 35°11' W 121°38'611.8
2017-Sep-24 12:30N 35°16' W 121°41'612.2
2017-Sep-24 12:00N 35°22' W 121°45'611.8
2017-Sep-24 11:30N 35°27' W 121°48'811.7
2017-Sep-24 10:49N 35°34' W 121°53'411.6
2017-Sep-24 10:30N 35°38' W 121°54'611.6
2017-Sep-24 10:00N 35°43' W 121°57'611.8
2017-Sep-24 09:30N 35°48' W 122°01'611.8
2017-Sep-24 09:00N 35°53' W 122°04'612.0
2017-Sep-24 08:30N 35°59' W 122°07'1411.9
2017-Sep-24 07:19N 36°11' W 122°15'411.9
2017-Sep-24 07:00N 36°15' W 122°17'812.2
2017-Sep-24 06:22N 36°22' W 122°21'411.6
2017-Sep-24 05:58N 36°26' W 122°23'611.8
2017-Sep-24 05:30N 36°31' W 122°25'611.7
2017-Sep-24 05:00N 36°37' W 122°28'611.6
2017-Sep-24 04:30N 36°42' W 122°31'611.6
2017-Sep-24 04:00N 36°48' W 122°33'611.6
2017-Sep-24 03:30N 36°53' W 122°36'611.7
2017-Sep-24 03:00N 36°59' W 122°38'611.8
2017-Sep-24 02:30N 37°04' W 122°41'612.2
2017-Sep-24 02:00N 37°10' W 122°43'612.1
2017-Sep-24 01:30N 37°16' W 122°44'612.4
2017-Sep-24 01:00N 37°22' W 122°44'612.1
2017-Sep-24 00:30N 37°28' W 122°44'612.3
2017-Sep-24 00:00N 37°34' W 122°44'611.6
2017-Sep-23 23:30N 37°40' W 122°43'611.8
2017-Sep-23 23:00N 37°45' W 122°40'611.4
2017-Sep-23 22:30N 37°48' W 122°33'612.8
2017-Sep-23 22:00N 37°51' W 122°26'5 9.8
2017-Sep-23 21:30N 37°56' W 122°27'611.1
2017-Sep-23 21:00N 38°01' W 122°24'611.2
2017-Sep-23 20:30N 38°03' W 122°18'3 6.3
2017-Sep-23 20:00N 38°04' W 122°14'72 1.7
2017-Sep-22 01:58N 36°52' W 122°23'1 1.9
2017-Sep-22 01:29N 36°53' W 122°23'1 1.9
2017-Sep-22 01:00N 36°54' W 122°24'1 1.9
2017-Sep-22 00:29N 36°55' W 122°24'1 1.8
2017-Sep-22 00:00N 36°56' W 122°25'1 1.8
2017-Sep-21 23:29N 36°57' W 122°25'1 1.8
2017-Sep-21 23:00N 36°58' W 122°25'1 1.8
2017-Sep-21 22:29N 36°59' W 122°25'1 1.7
2017-Sep-21 22:00N 36°59' W 122°26'1 1.7
2017-Sep-21 21:30N 37°00' W 122°26'1 1.8
2017-Sep-21 20:59N 37°01' W 122°26'1 1.8
2017-Sep-21 20:30N 37°02' W 122°27'1 1.8
2017-Sep-21 20:00N 37°03' W 122°27'1 1.6
2017-Sep-21 19:30N 37°04' W 122°27'1 1.5
2017-Sep-21 19:00N 37°04' W 122°27'1 1.6
2017-Sep-21 18:30N 37°05' W 122°27'3 6.8
2017-Sep-21 18:00N 37°02' W 122°25'4 8.3
2017-Sep-21 17:30N 36°58' W 122°23'10 2.2
2017-Sep-21 13:10N 36°49' W 122°21'1 1.5
2017-Sep-21 12:49N 36°49' W 122°21'1 1.5
2017-Sep-21 12:10N 36°50' W 122°22'1 1.4
2017-Sep-21 11:34N 36°51' W 122°23'0 1.4
2017-Sep-21 11:20N 36°51' W 122°23'1 1.4
2017-Sep-21 10:55N 36°52' W 122°23'1 1.5
2017-Sep-21 10:27N 36°52' W 122°24'1 1.5
2017-Sep-21 09:57N 36°53' W 122°24'1 1.5
2017-Sep-21 09:29N 36°53' W 122°24'1 1.4
2017-Sep-21 08:59N 36°54' W 122°25'1 1.4
2017-Sep-21 08:29N 36°55' W 122°25'1 1.2
2017-Sep-21 08:00N 36°55' W 122°26'1 1.1
2017-Sep-21 07:30N 36°56' W 122°26'0 1.0
2017-Sep-21 07:00N 36°56' W 122°26'1 1.2
2017-Sep-21 06:30N 36°57' W 122°26'1 1.2
2017-Sep-21 06:00N 36°57' W 122°27'1 1.1
2017-Sep-21 05:30N 36°58' W 122°27'1 1.1
2017-Sep-21 05:00N 36°58' W 122°28'1 1.2
2017-Sep-21 04:30N 36°58' W 122°28'1 1.1
2017-Sep-21 04:00N 36°59' W 122°29'1 1.2
2017-Sep-21 03:30N 36°59' W 122°29'1 1.2
2017-Sep-21 03:00N 36°60' W 122°29'1 1.2
2017-Sep-21 02:30N 37°00' W 122°30'1 1.1
2017-Sep-21 02:00N 37°01' W 122°30'1 1.1
2017-Sep-21 01:30N 37°02' W 122°30'1 1.3
2017-Sep-21 01:00N 37°02' W 122°30'1 1.3
2017-Sep-21 00:30N 37°03' W 122°31'1 1.3
2017-Sep-21 00:00N 37°03' W 122°31'1 1.4
2017-Sep-20 23:30N 37°04' W 122°31'1 1.5
2017-Sep-20 23:00N 37°05' W 122°32'1 1.5
2017-Sep-20 22:30N 37°05' W 122°32'1 1.4
2017-Sep-20 22:00N 37°06' W 122°32'1 1.4
2017-Sep-20 21:30N 37°07' W 122°33'1 1.2
2017-Sep-20 21:00N 37°07' W 122°33'1 1.3
2017-Sep-20 20:30N 37°08' W 122°33'1 1.4
2017-Sep-20 20:00N 37°08' W 122°33'1 1.0
2017-Sep-20 19:30N 37°09' W 122°33'0 1.0
2017-Sep-20 19:00N 37°09' W 122°33'1 1.1
2017-Sep-20 18:30N 37°10' W 122°33'1 1.1
2017-Sep-20 18:00N 37°11' W 122°33'0 0.9
2017-Sep-20 17:30N 37°11' W 122°33'1 1.0
2017-Sep-20 17:00N 37°12' W 122°33'1 1.2
2017-Sep-20 16:31N 37°12' W 122°33'5 9.4
2017-Sep-20 16:00N 37°07' W 122°33'510.8
2017-Sep-20 15:30N 37°02' W 122°33'510.8
2017-Sep-20 15:00N 36°57' W 122°33'42 9.5
2017-Sep-20 10:36N 36°17' W 122°16'1 9.3
2017-Sep-20 10:29N 36°16' W 122°15'22 8.8
2017-Sep-20 08:01N 35°56' W 122°05'010.1
2017-Sep-20 08:00N 35°56' W 122°05'21 8.5
2017-Sep-20 05:33N 35°37' W 121°54'0 7.6
2017-Sep-20 05:30N 35°37' W 121°54'4 8.4
2017-Sep-20 05:00N 35°33' W 121°51'4 8.6
2017-Sep-20 04:30N 35°29' W 121°49'4 8.7
2017-Sep-20 03:59N 35°26' W 121°46'4 8.7
2017-Sep-20 03:30N 35°22' W 121°43'4 8.7
2017-Sep-20 03:00N 35°18' W 121°40'4 8.6
2017-Sep-20 02:29N 35°15' W 121°37'4 8.7
2017-Sep-20 02:00N 35°11' W 121°34'4 8.8
2017-Sep-20 01:30N 35°07' W 121°31'4 9.0
2017-Sep-20 01:00N 35°04' W 121°28'5 9.3
2017-Sep-20 00:30N 34°60' W 121°25'4 8.9
2017-Sep-20 00:00N 34°56' W 121°23'4 8.6
2017-Sep-19 23:30N 34°52' W 121°20'5 8.8
2017-Sep-19 23:00N 34°48' W 121°17'4 8.8
2017-Sep-19 22:30N 34°45' W 121°14'4 8.9
2017-Sep-19 22:00N 34°41' W 121°11'5 9.0
2017-Sep-19 21:30N 34°37' W 121°08'5 9.3
2017-Sep-19 21:00N 34°33' W 121°05'5 9.2
2017-Sep-19 20:28N 34°29' W 121°02'4 9.4
2017-Sep-19 20:00N 34°25' W 120°59'5 9.8
2017-Sep-19 19:30N 34°21' W 120°56'5 9.7
2017-Sep-19 19:00N 34°17' W 120°53'5 9.8
2017-Sep-19 18:30N 34°13' W 120°50'5 9.5
2017-Sep-19 18:00N 34°09' W 120°47'5 9.3
2017-Sep-19 17:30N 34°05' W 120°44'5 9.4
2017-Sep-19 17:00N 34°01' W 120°41'5 9.9
2017-Sep-19 16:30N 33°57' W 120°37'5 9.7
2017-Sep-19 16:00N 33°53' W 120°34'5 9.8
2017-Sep-19 15:30N 33°49' W 120°31'5 9.3
2017-Sep-19 15:00N 33°46' W 120°27'610.5
2017-Sep-19 14:25N 33°45' W 120°20'410.5
2017-Sep-19 14:00N 33°45' W 120°14'510.6
2017-Sep-19 13:29N 33°44' W 120°08'510.5
2017-Sep-19 13:00N 33°43' W 120°02'610.9
2017-Sep-19 12:28N 33°43' W 119°55'511.5
2017-Sep-19 12:00N 33°42' W 119°48'511.1
2017-Sep-19 11:30N 33°42' W 119°42'611.5
2017-Sep-19 10:59N 33°41' W 119°35'611.8
2017-Sep-19 10:30N 33°41' W 119°28'611.8
2017-Sep-19 10:00N 33°40' W 119°21'611.6
2017-Sep-19 09:29N 33°39' W 119°14'611.6
2017-Sep-19 08:57N 33°39' W 119°06'511.1
2017-Sep-19 08:30N 33°38' W 119°00'611.0
2017-Sep-19 08:00N 33°38' W 118°54'611.3
2017-Sep-19 07:30N 33°37' W 118°47'611.5
2017-Sep-19 07:00N 33°37' W 118°40'611.4
2017-Sep-19 06:30N 33°36' W 118°33'611.2
2017-Sep-19 06:00N 33°36' W 118°27'510.3
2017-Sep-19 05:30N 33°35' W 118°21'510.7
2017-Sep-19 05:00N 33°35' W 118°14'611.2
2017-Sep-19 04:30N 33°41' W 118°12'3 6.4
2017-Sep-19 04:01N 33°44' W 118°12'3 5.2
2017-Sep-19 03:30N 33°46' W 118°13'0 0.1
2017-Sep-18 23:03N 33°46' W 118°13'0 0.0
2017-Sep-18 20:45N 33°46' W 118°13'0 0.0
2017-Sep-18 20:21N 33°46' W 118°13'0 0.0
2017-Sep-17 23:45N 33°46' W 118°13'0 0.0
2017-Sep-17 22:33N 33°46' W 118°13'0 0.1
2017-Sep-17 22:09N 33°46' W 118°13'0 0.0
2017-Sep-17 21:42N 33°46' W 118°13'0 0.0
2017-Sep-17 20:31N 33°46' W 118°13'0 0.0
2017-Sep-17 20:07N 33°46' W 118°13'0 0.0
2017-Sep-17 18:25N 33°46' W 118°13'0 0.0
2017-Sep-17 13:23N 33°46' W 118°13'1 3.2
2017-Sep-17 13:00N 33°45' W 118°13'3 5.3
2017-Sep-17 12:30N 33°43' W 118°11'4 8.0
2017-Sep-17 12:00N 33°39' W 118°10'4 7.3
2017-Sep-17 11:30N 33°35' W 118°10'4 8.7
2017-Sep-17 11:00N 33°31' W 118°08'4 7.0
2017-Sep-17 10:30N 33°28' W 118°07'3 6.7
2017-Sep-17 10:00N 33°25' W 118°05'3 5.9
2017-Sep-17 09:30N 33°22' W 118°03'3 6.6
2017-Sep-17 09:00N 33°19' W 118°02'510.5
2017-Sep-17 08:30N 33°14' W 118°01'510.7
2017-Sep-17 08:00N 33°09' W 118°02'510.6
2017-Sep-17 07:30N 33°04' W 118°02'510.6
2017-Sep-17 07:00N 32°58' W 118°03'510.6
2017-Sep-17 06:31N 32°53' W 118°04'510.7
2017-Sep-17 06:00N 32°48' W 118°06'510.7
2017-Sep-17 05:30N 32°43' W 118°09'4 7.3
2017-Sep-17 05:00N 32°40' W 118°11'510.7
2017-Sep-17 04:30N 32°38' W 118°17'510.8
2017-Sep-17 04:00N 32°35' W 118°23'510.8
2017-Sep-17 03:30N 32°33' W 118°28'510.1
2017-Sep-17 03:00N 32°28' W 118°30'510.9
2017-Sep-17 02:30N 32°22' W 118°31'510.8
2017-Sep-17 02:00N 32°17' W 118°32'510.7
2017-Sep-17 01:30N 32°12' W 118°32'510.6
2017-Sep-17 01:00N 32°07' W 118°33'510.6
2017-Sep-17 00:30N 32°01' W 118°33'510.7
2017-Sep-17 00:00N 31°56' W 118°33'5 9.7
2017-Sep-16 23:30N 31°51' W 118°35'510.9
2017-Sep-16 23:00N 31°46' W 118°35'611.2
2017-Sep-16 22:29N 31°40' W 118°36'612.3
2017-Sep-16 22:00N 31°34' W 118°37'712.6
2017-Sep-16 21:27N 31°27' W 118°38'612.5
2017-Sep-16 20:59N 31°21' W 118°39'612.5
2017-Sep-16 20:30N 31°15' W 118°40'611.7
2017-Sep-16 19:59N 31°09' W 118°41'510.0
2017-Sep-16 19:30N 31°05' W 118°42'5 9.5
2017-Sep-16 19:00N 30°60' W 118°43'1 2.0
2017-Sep-16 18:30N 30°59' W 118°43'1 2.5
2017-Sep-16 18:00N 31°00' W 118°43'1 2.3
2017-Sep-16 17:30N 31°01' W 118°43'4 1.7
2017-Sep-16 15:12N 31°04' W 118°46'0 1.6
2017-Sep-16 15:00N 31°04' W 118°47'1 1.5
2017-Sep-16 14:30N 31°05' W 118°47'1 1.5
2017-Sep-16 13:57N 31°06' W 118°48'1 1.5
2017-Sep-16 13:22N 31°07' W 118°48'1 1.8
2017-Sep-16 13:00N 31°07' W 118°49'1 1.7
2017-Sep-16 12:30N 31°08' W 118°49'1 1.4
2017-Sep-16 12:00N 31°08' W 118°50'1 1.5
2017-Sep-16 11:30N 31°09' W 118°50'1 1.5
2017-Sep-16 10:48N 31°10' W 118°51'1 1.5
2017-Sep-16 10:22N 31°10' W 118°51'1 1.5
2017-Sep-16 09:59N 31°11' W 118°52'1 1.5
2017-Sep-16 09:30N 31°11' W 118°52'1 1.6
2017-Sep-16 09:00N 31°12' W 118°53'1 1.4
2017-Sep-16 08:30N 31°12' W 118°54'1 1.3
2017-Sep-16 08:00N 31°13' W 118°54'1 1.4
2017-Sep-16 07:30N 31°13' W 118°54'1 1.5
2017-Sep-16 07:00N 31°14' W 118°55'1 1.1
2017-Sep-16 06:30N 31°15' W 118°55'1 1.5
2017-Sep-16 06:00N 31°15' W 118°56'1 1.3
2017-Sep-16 04:57N 31°16' W 118°56'1 1.5
2017-Sep-16 03:59N 31°18' W 118°57'1 1.1
2017-Sep-16 03:30N 31°18' W 118°57'1 1.4
2017-Sep-16 02:47N 31°19' W 118°58'3 1.5
2017-Sep-16 00:28N 31°22' W 119°00'7 5.0
2017-Sep-15 23:04N 31°27' W 119°06'0 6.0
2017-Sep-15 23:00N 31°27' W 119°06'3 6.7
2017-Sep-15 22:29N 31°30' W 119°09'2 3.5
2017-Sep-15 21:59N 31°30' W 119°11'1 2.3
2017-Sep-15 21:30N 31°31' W 119°11'1 1.8
2017-Sep-15 20:56N 31°32' W 119°12'1 2.3
2017-Sep-15 20:30N 31°33' W 119°12'3 5.3
2017-Sep-15 20:00N 31°36' W 119°12'4 8.3
2017-Sep-15 19:28N 31°40' W 119°10'4 8.3
2017-Sep-15 19:00N 31°43' W 119°09'4 8.1
2017-Sep-15 18:27N 31°48' W 119°07'4 8.2
2017-Sep-15 18:01N 31°51' W 119°05'5 8.3
2017-Sep-15 17:22N 31°56' W 119°03'2 3.3
2017-Sep-15 16:46N 31°58' W 119°03'0 1.2
2017-Sep-15 16:30N 31°58' W 119°03'1 1.1
2017-Sep-15 15:58N 31°59' W 119°04'1 1.2
2017-Sep-15 15:29N 31°59' W 119°05'0 0.9
2017-Sep-15 14:57N 31°59' W 119°05'0 0.8
2017-Sep-15 14:28N 31°59' W 119°05'0 0.8
2017-Sep-15 13:55N 31°60' W 119°06'0 0.7
2017-Sep-15 13:30N 31°60' W 119°06'0 0.7
2017-Sep-15 12:59N 32°00' W 119°06'0 0.7
2017-Sep-15 12:29N 32°00' W 119°07'0 0.8
2017-Sep-15 12:00N 32°00' W 119°07'  
Track history (hours):
 
Tides and Currents Weather Stations Pressure Air Temp Water Temp Dewpoint Dewpoint Depression Visibility Wind Speed Wind Dir Waves Ship Positions

Paramount Hydra

Last reported at 2017-Sep-25 11:30 UTC. Time now 2017-Sep-25 11:36 UTC.
Position N 31°56' W 119°34'.

Length 250 m; draft 8.6 m.

Type: Ship. MMSI: 235076283.

Date/timePositionNaut miles runAvg speedWind from/ knotsBaromVisibWave heightAir tempDewpointWater temp
2017-Sep-25 11:30N 31°56' W 119°34'1 1.6
2017-Sep-25 11:00N 31°56' W 119°34'1 1.7
2017-Sep-25 10:31N 31°57' W 119°34'1 1.7
2017-Sep-25 10:00N 31°58' W 119°34'1 1.8
2017-Sep-25 09:30N 31°59' W 119°34'1 1.8
2017-Sep-25 09:01N 31°60' W 119°33'1 1.9
2017-Sep-25 08:30N 32°01' W 119°33'1 2.0
2017-Sep-25 08:00N 32°02' W 119°33'1 2.1
2017-Sep-25 07:31N 32°03' W 119°33'1 2.1
2017-Sep-25 07:00N 32°04' W 119°32'4 7.4
2017-Sep-25 06:30N 32°07' W 119°35'612.2
2017-Sep-25 06:00N 32°12' W 119°39'612.2
2017-Sep-25 05:30N 32°17' W 119°42'612.4
2017-Sep-25 05:00N 32°22' W 119°46'612.2
2017-Sep-25 04:30N 32°28' W 119°50'3112.2
2017-Sep-25 01:57N 32°54' W 120°10'612.6
2017-Sep-25 01:30N 32°59' W 120°13'612.6
2017-Sep-25 01:00N 33°04' W 120°17'612.3
2017-Sep-25 00:30N 33°09' W 120°21'612.2
2017-Sep-25 00:00N 33°15' W 120°25'612.7
2017-Sep-24 23:30N 33°20' W 120°29'612.7
2017-Sep-24 23:00N 33°26' W 120°33'612.1
2017-Sep-24 22:30N 33°31' W 120°36'612.1
2017-Sep-24 22:00N 33°36' W 120°40'612.1
2017-Sep-24 21:30N 33°42' W 120°43'611.7
2017-Sep-24 21:00N 33°47' W 120°46'611.7
2017-Sep-24 20:30N 33°52' W 120°49'611.9
2017-Sep-24 19:59N 33°58' W 120°53'612.1
2017-Sep-24 19:28N 34°03' W 120°56'612.2
2017-Sep-24 19:00N 34°08' W 120°59'612.1
2017-Sep-24 18:28N 34°14' W 121°03'511.8
2017-Sep-24 18:00N 34°19' W 121°07'611.6
2017-Sep-24 17:30N 34°24' W 121°10'611.7
2017-Sep-24 17:00N 34°29' W 121°12'611.5
2017-Sep-24 16:30N 34°34' W 121°15'611.7
2017-Sep-24 16:00N 34°39' W 121°19'611.7
2017-Sep-24 15:30N 34°45' W 121°22'711.8
2017-Sep-24 14:57N 34°51' W 121°25'511.9
2017-Sep-24 14:30N 34°55' W 121°28'611.9
2017-Sep-24 14:00N 35°01' W 121°31'611.9
2017-Sep-24 13:30N 35°06' W 121°35'611.8
2017-Sep-24 13:00N 35°11' W 121°38'611.8
2017-Sep-24 12:30N 35°16' W 121°41'612.2
2017-Sep-24 12:00N 35°22' W 121°45'611.8
2017-Sep-24 11:30N 35°27' W 121°48'811.7
2017-Sep-24 10:49N 35°34' W 121°53'411.6
2017-Sep-24 10:30N 35°38' W 121°54'611.6
2017-Sep-24 10:00N 35°43' W 121°57'611.8
2017-Sep-24 09:30N 35°48' W 122°01'611.8
2017-Sep-24 09:00N 35°53' W 122°04'612.0
2017-Sep-24 08:30N 35°59' W 122°07'1411.9
2017-Sep-24 07:19N 36°11' W 122°15'411.9
2017-Sep-24 07:00N 36°15' W 122°17'812.2
2017-Sep-24 06:22N 36°22' W 122°21'411.6
2017-Sep-24 05:58N 36°26' W 122°23'611.8
2017-Sep-24 05:30N 36°31' W 122°25'611.7
2017-Sep-24 05:00N 36°37' W 122°28'611.6
2017-Sep-24 04:30N 36°42' W 122°31'611.6
2017-Sep-24 04:00N 36°48' W 122°33'611.6
2017-Sep-24 03:30N 36°53' W 122°36'611.7
2017-Sep-24 03:00N 36°59' W 122°38'611.8
2017-Sep-24 02:30N 37°04' W 122°41'612.2
2017-Sep-24 02:00N 37°10' W 122°43'612.1
2017-Sep-24 01:30N 37°16' W 122°44'612.4
2017-Sep-24 01:00N 37°22' W 122°44'612.1
2017-Sep-24 00:30N 37°28' W 122°44'612.3
2017-Sep-24 00:00N 37°34' W 122°44'611.6
2017-Sep-23 23:30N 37°40' W 122°43'611.8
2017-Sep-23 23:00N 37°45' W 122°40'611.4
2017-Sep-23 22:30N 37°48' W 122°33'612.8
2017-Sep-23 22:00N 37°51' W 122°26'5 9.8
2017-Sep-23 21:30N 37°56' W 122°27'611.1
2017-Sep-23 21:00N 38°01' W 122°24'611.2
2017-Sep-23 20:30N 38°03' W 122°18'3 6.3
2017-Sep-23 20:00N 38°04' W 122°14'72 1.7
2017-Sep-22 01:58N 36°52' W 122°23'1 1.9
2017-Sep-22 01:29N 36°53' W 122°23'1 1.9
2017-Sep-22 01:00N 36°54' W 122°24'1 1.9
2017-Sep-22 00:29N 36°55' W 122°24'1 1.8
2017-Sep-22 00:00N 36°56' W 122°25'1 1.8
2017-Sep-21 23:29N 36°57' W 122°25'1 1.8
2017-Sep-21 23:00N 36°58' W 122°25'1 1.8
2017-Sep-21 22:29N 36°59' W 122°25'1 1.7
2017-Sep-21 22:00N 36°59' W 122°26'1 1.7
2017-Sep-21 21:30N 37°00' W 122°26'1 1.8
2017-Sep-21 20:59N 37°01' W 122°26'1 1.8
2017-Sep-21 20:30N 37°02' W 122°27'1 1.8
2017-Sep-21 20:00N 37°03' W 122°27'1 1.6
2017-Sep-21 19:30N 37°04' W 122°27'1 1.5
2017-Sep-21 19:00N 37°04' W 122°27'1 1.6
2017-Sep-21 18:30N 37°05' W 122°27'3 6.8
2017-Sep-21 18:00N 37°02' W 122°25'4 8.3
2017-Sep-21 17:30N 36°58' W 122°23'10 2.2
2017-Sep-21 13:10N 36°49' W 122°21'1 1.5
2017-Sep-21 12:49N 36°49' W 122°21'1 1.5
2017-Sep-21 12:10N 36°50' W 122°22'1 1.4
2017-Sep-21 11:34N 36°51' W 122°23'0 1.4
2017-Sep-21 11:20N 36°51' W 122°23'1 1.4
2017-Sep-21 10:55N 36°52' W 122°23'1 1.5
2017-Sep-21 10:27N 36°52' W 122°24'1 1.5
2017-Sep-21 09:57N 36°53' W 122°24'1 1.5
2017-Sep-21 09:29N 36°53' W 122°24'1 1.4
2017-Sep-21 08:59N 36°54' W 122°25'1 1.4
2017-Sep-21 08:29N 36°55' W 122°25'1 1.2
2017-Sep-21 08:00N 36°55' W 122°26'1 1.1
2017-Sep-21 07:30N 36°56' W 122°26'0 1.0
2017-Sep-21 07:00N 36°56' W 122°26'1 1.2
2017-Sep-21 06:30N 36°57' W 122°26'1 1.2
2017-Sep-21 06:00N 36°57' W 122°27'1 1.1
2017-Sep-21 05:30N 36°58' W 122°27'1 1.1
2017-Sep-21 05:00N 36°58' W 122°28'1 1.2
2017-Sep-21 04:30N 36°58' W 122°28'1 1.1
2017-Sep-21 04:00N 36°59' W 122°29'1 1.2
2017-Sep-21 03:30N 36°59' W 122°29'1 1.2
2017-Sep-21 03:00N 36°60' W 122°29'1 1.2
2017-Sep-21 02:30N 37°00' W 122°30'1 1.1
2017-Sep-21 02:00N 37°01' W 122°30'1 1.1
2017-Sep-21 01:30N 37°02' W 122°30'1 1.3
2017-Sep-21 01:00N 37°02' W 122°30'1 1.3
2017-Sep-21 00:30N 37°03' W 122°31'1 1.3
2017-Sep-21 00:00N 37°03' W 122°31'1 1.4
2017-Sep-20 23:30N 37°04' W 122°31'1 1.5
2017-Sep-20 23:00N 37°05' W 122°32'1 1.5
2017-Sep-20 22:30N 37°05' W 122°32'1 1.4
2017-Sep-20 22:00N 37°06' W 122°32'1 1.4
2017-Sep-20 21:30N 37°07' W 122°33'1 1.2
2017-Sep-20 21:00N 37°07' W 122°33'1 1.3
2017-Sep-20 20:30N 37°08' W 122°33'1 1.4
2017-Sep-20 20:00N 37°08' W 122°33'1 1.0
2017-Sep-20 19:30N 37°09' W 122°33'0 1.0
2017-Sep-20 19:00N 37°09' W 122°33'1 1.1
2017-Sep-20 18:30N 37°10' W 122°33'1 1.1
2017-Sep-20 18:00N 37°11' W 122°33'0 0.9
2017-Sep-20 17:30N 37°11' W 122°33'1 1.0
2017-Sep-20 17:00N 37°12' W 122°33'1 1.2
2017-Sep-20 16:31N 37°12' W 122°33'5 9.4
2017-Sep-20 16:00N 37°07' W 122°33'510.8
2017-Sep-20 15:30N 37°02' W 122°33'510.8
2017-Sep-20 15:00N 36°57' W 122°33'42 9.5
2017-Sep-20 10:36N 36°17' W 122°16'1 9.3
2017-Sep-20 10:29N 36°16' W 122°15'22 8.8
2017-Sep-20 08:01N 35°56' W 122°05'010.1
2017-Sep-20 08:00N 35°56' W 122°05'21 8.5
2017-Sep-20 05:33N 35°37' W 121°54'0 7.6
2017-Sep-20 05:30N 35°37' W 121°54'4 8.4
2017-Sep-20 05:00N 35°33' W 121°51'4 8.6
2017-Sep-20 04:30N 35°29' W 121°49'4 8.7
2017-Sep-20 03:59N 35°26' W 121°46'4 8.7
2017-Sep-20 03:30N 35°22' W 121°43'4 8.7
2017-Sep-20 03:00N 35°18' W 121°40'4 8.6
2017-Sep-20 02:29N 35°15' W 121°37'4 8.7
2017-Sep-20 02:00N 35°11' W 121°34'4 8.8
2017-Sep-20 01:30N 35°07' W 121°31'4 9.0
2017-Sep-20 01:00N 35°04' W 121°28'5 9.3
2017-Sep-20 00:30N 34°60' W 121°25'4 8.9
2017-Sep-20 00:00N 34°56' W 121°23'4 8.6
2017-Sep-19 23:30N 34°52' W 121°20'5 8.8
2017-Sep-19 23:00N 34°48' W 121°17'4 8.8
2017-Sep-19 22:30N 34°45' W 121°14'4 8.9
2017-Sep-19 22:00N 34°41' W 121°11'5 9.0
2017-Sep-19 21:30N 34°37' W 121°08'5 9.3
2017-Sep-19 21:00N 34°33' W 121°05'5 9.2
2017-Sep-19 20:28N 34°29' W 121°02'4 9.4
2017-Sep-19 20:00N 34°25' W 120°59'5 9.8
2017-Sep-19 19:30N 34°21' W 120°56'5 9.7
2017-Sep-19 19:00N 34°17' W 120°53'5 9.8
2017-Sep-19 18:30N 34°13' W 120°50'5 9.5
2017-Sep-19 18:00N 34°09' W 120°47'5 9.3
2017-Sep-19 17:30N 34°05' W 120°44'5 9.4
2017-Sep-19 17:00N 34°01' W 120°41'5 9.9
2017-Sep-19 16:30N 33°57' W 120°37'5 9.7
2017-Sep-19 16:00N 33°53' W 120°34'5 9.8
2017-Sep-19 15:30N 33°49' W 120°31'5 9.3
2017-Sep-19 15:00N 33°46' W 120°27'610.5
2017-Sep-19 14:25N 33°45' W 120°20'410.5
2017-Sep-19 14:00N 33°45' W 120°14'510.6
2017-Sep-19 13:29N 33°44' W 120°08'510.5
2017-Sep-19 13:00N 33°43' W 120°02'610.9
2017-Sep-19 12:28N 33°43' W 119°55'511.5
2017-Sep-19 12:00N 33°42' W 119°48'511.1
2017-Sep-19 11:30N 33°42' W 119°42'611.5
2017-Sep-19 10:59N 33°41' W 119°35'611.8
2017-Sep-19 10:30N 33°41' W 119°28'611.8
2017-Sep-19 10:00N 33°40' W 119°21'611.6
2017-Sep-19 09:29N 33°39' W 119°14'611.6
2017-Sep-19 08:57N 33°39' W 119°06'511.1
2017-Sep-19 08:30N 33°38' W 119°00'611.0
2017-Sep-19 08:00N 33°38' W 118°54'611.3
2017-Sep-19 07:30N 33°37' W 118°47'611.5
2017-Sep-19 07:00N 33°37' W 118°40'611.4
2017-Sep-19 06:30N 33°36' W 118°33'611.2
2017-Sep-19 06:00N 33°36' W 118°27'510.3
2017-Sep-19 05:30N 33°35' W 118°21'510.7
2017-Sep-19 05:00N 33°35' W 118°14'611.2
2017-Sep-19 04:30N 33°41' W 118°12'3 6.4
2017-Sep-19 04:01N 33°44' W 118°12'3 5.2
2017-Sep-19 03:30N 33°46' W 118°13'0 0.1
2017-Sep-18 23:03N 33°46' W 118°13'0 0.0
2017-Sep-18 20:45N 33°46' W 118°13'0 0.0
2017-Sep-18 20:21N 33°46' W 118°13'0 0.0
2017-Sep-17 23:45N 33°46' W 118°13'0 0.0
2017-Sep-17 22:33N 33°46' W 118°13'0 0.1
2017-Sep-17 22:09N 33°46' W 118°13'0 0.0
2017-Sep-17 21:42N 33°46' W 118°13'0 0.0
2017-Sep-17 20:31N 33°46' W 118°13'0 0.0
2017-Sep-17 20:07N 33°46' W 118°13'0 0.0
2017-Sep-17 18:25N 33°46' W 118°13'0 0.0
2017-Sep-17 13:23N 33°46' W 118°13'1 3.2
2017-Sep-17 13:00N 33°45' W 118°13'3 5.3
2017-Sep-17 12:30N 33°43' W 118°11'4 8.0
2017-Sep-17 12:00N 33°39' W 118°10'4 7.3
2017-Sep-17 11:30N 33°35' W 118°10'4 8.7
2017-Sep-17 11:00N 33°31' W 118°08'4 7.0
2017-Sep-17 10:30N 33°28' W 118°07'3 6.7
2017-Sep-17 10:00N 33°25' W 118°05'3 5.9
2017-Sep-17 09:30N 33°22' W 118°03'3 6.6
2017-Sep-17 09:00N 33°19' W 118°02'510.5
2017-Sep-17 08:30N 33°14' W 118°01'510.7
2017-Sep-17 08:00N 33°09' W 118°02'510.6
2017-Sep-17 07:30N 33°04' W 118°02'510.6
2017-Sep-17 07:00N 32°58' W 118°03'510.6
2017-Sep-17 06:31N 32°53' W 118°04'510.7
2017-Sep-17 06:00N 32°48' W 118°06'510.7
2017-Sep-17 05:30N 32°43' W 118°09'4 7.3
2017-Sep-17 05:00N 32°40' W 118°11'510.7
2017-Sep-17 04:30N 32°38' W 118°17'510.8
2017-Sep-17 04:00N 32°35' W 118°23'510.8
2017-Sep-17 03:30N 32°33' W 118°28'510.1
2017-Sep-17 03:00N 32°28' W 118°30'510.9
2017-Sep-17 02:30N 32°22' W 118°31'510.8
2017-Sep-17 02:00N 32°17' W 118°32'510.7
2017-Sep-17 01:30N 32°12' W 118°32'510.6
2017-Sep-17 01:00N 32°07' W 118°33'510.6
2017-Sep-17 00:30N 32°01' W 118°33'510.7
2017-Sep-17 00:00N 31°56' W 118°33'5 9.7
2017-Sep-16 23:30N 31°51' W 118°35'510.9
2017-Sep-16 23:00N 31°46' W 118°35'611.2
2017-Sep-16 22:29N 31°40' W 118°36'612.3
2017-Sep-16 22:00N 31°34' W 118°37'712.6
2017-Sep-16 21:27N 31°27' W 118°38'612.5
2017-Sep-16 20:59N 31°21' W 118°39'612.5
2017-Sep-16 20:30N 31°15' W 118°40'611.7
2017-Sep-16 19:59N 31°09' W 118°41'510.0
2017-Sep-16 19:30N 31°05' W 118°42'5 9.5
2017-Sep-16 19:00N 30°60' W 118°43'1 2.0
2017-Sep-16 18:30N 30°59' W 118°43'1 2.5
2017-Sep-16 18:00N 31°00' W 118°43'1 2.3
2017-Sep-16 17:30N 31°01' W 118°43'4 1.7
2017-Sep-16 15:12N 31°04' W 118°46'0 1.6
2017-Sep-16 15:00N 31°04' W 118°47'1 1.5
2017-Sep-16 14:30N 31°05' W 118°47'1 1.5
2017-Sep-16 13:57N 31°06' W 118°48'1 1.5
2017-Sep-16 13:22N 31°07' W 118°48'1 1.8
2017-Sep-16 13:00N 31°07' W 118°49'1 1.7
2017-Sep-16 12:30N 31°08' W 118°49'1 1.4
2017-Sep-16 12:00N 31°08' W 118°50'1 1.5
2017-Sep-16 11:30N 31°09' W 118°50'1 1.5
2017-Sep-16 10:48N 31°10' W 118°51'1 1.5
2017-Sep-16 10:22N 31°10' W 118°51'1 1.5
2017-Sep-16 09:59N 31°11' W 118°52'1 1.5
2017-Sep-16 09:30N 31°11' W 118°52'1 1.6
2017-Sep-16 09:00N 31°12' W 118°53'1 1.4
2017-Sep-16 08:30N 31°12' W 118°54'1 1.3
2017-Sep-16 08:00N 31°13' W 118°54'1 1.4
2017-Sep-16 07:30N 31°13' W 118°54'1 1.5
2017-Sep-16 07:00N 31°14' W 118°55'1 1.1
2017-Sep-16 06:30N 31°15' W 118°55'1 1.5
2017-Sep-16 06:00N 31°15' W 118°56'1 1.3
2017-Sep-16 04:57N 31°16' W 118°56'1 1.5
2017-Sep-16 03:59N 31°18' W 118°57'1 1.1
2017-Sep-16 03:30N 31°18' W 118°57'1 1.4
2017-Sep-16 02:47N 31°19' W 118°58'3 1.5
2017-Sep-16 00:28N 31°22' W 119°00'7 5.0
2017-Sep-15 23:04N 31°27' W 119°06'0 6.0
2017-Sep-15 23:00N 31°27' W 119°06'3 6.7
2017-Sep-15 22:29N 31°30' W 119°09'2 3.5
2017-Sep-15 21:59N 31°30' W 119°11'1 2.3
2017-Sep-15 21:30N 31°31' W 119°11'1 1.8
2017-Sep-15 20:56N 31°32' W 119°12'1 2.3
2017-Sep-15 20:30N 31°33' W 119°12'3 5.3
2017-Sep-15 20:00N 31°36' W 119°12'4 8.3
2017-Sep-15 19:28N 31°40' W 119°10'4 8.3
2017-Sep-15 19:00N 31°43' W 119°09'4 8.1
2017-Sep-15 18:27N 31°48' W 119°07'4 8.2
2017-Sep-15 18:01N 31°51' W 119°05'5 8.3
2017-Sep-15 17:22N 31°56' W 119°03'2 3.3
2017-Sep-15 16:46N 31°58' W 119°03'0 1.2
2017-Sep-15 16:30N 31°58' W 119°03'1 1.1
2017-Sep-15 15:58N 31°59' W 119°04'1 1.2
2017-Sep-15 15:29N 31°59' W 119°05'0 0.9
2017-Sep-15 14:57N 31°59' W 119°05'0 0.8
2017-Sep-15 14:28N 31°59' W 119°05'0 0.8
2017-Sep-15 13:55N 31°60' W 119°06'0 0.7
2017-Sep-15 13:30N 31°60' W 119°06'0 0.7
2017-Sep-15 12:59N 32°00' W 119°06'0 0.7
2017-Sep-15 12:29N 32°00' W 119°07'0 0.8
2017-Sep-15 12:00N 32°00' W 119°07'  

Dump ship's entire track history